Time;durP1;ratioP1;P1;durP2;ratioP2;P2;SDS_P1;SDS_P2;PMS_P1;PMS_P2;Temp;Humidity;BMP_temperature;BMP_pressure;BME280_temperature;BME280_humidity;BME280_pressure;Samples;Min_cycle;Max_cycle;Signal;HPM_P1;HPM_P2
2022/09/12 00:00:32;;;;;;;7.65;6.78;;;21.30;93.00;;;;;;5034041;28;20100;-70
2022/09/12 00:02:58;;;;;;;8.15;6.88;;;21.20;93.00;;;;;;5032462;28;20025;-69
2022/09/12 00:05:24;;;;;;;7.57;6.88;;;21.20;93.10;;;;;;5033855;28;20425;-69
2022/09/12 00:07:50;;;;;;;8.43;7.53;;;21.20;93.10;;;;;;5033679;28;20021;-69
2022/09/12 00:10:16;;;;;;;7.68;6.88;;;21.20;93.10;;;;;;5033683;28;20479;-71
2022/09/12 00:12:42;;;;;;;10.35;6.75;;;21.20;93.10;;;;;;5033668;28;20029;-70
2022/09/12 00:15:09;;;;;;;8.57;7.70;;;21.10;93.20;;;;;;5033606;28;20470;-74
2022/09/12 00:17:35;;;;;;;7.43;6.68;;;21.20;93.20;;;;;;5033798;28;20528;-67
2022/09/12 00:20:02;;;;;;;7.82;6.60;;;21.10;93.20;;;;;;5033747;28;20044;-68
2022/09/12 00:22:28;;;;;;;7.97;7.18;;;21.10;93.20;;;;;;5033733;28;20108;-69
2022/09/12 00:24:53;;;;;;;7.03;6.32;;;21.10;93.20;;;;;;5033387;28;20108;-71
2022/09/12 00:27:19;;;;;;;7.97;7.18;;;21.10;93.30;;;;;;5033561;28;20096;-72
2022/09/12 00:29:44;;;;;;;9.15;6.45;;;21.10;93.30;;;;;;5033462;28;20109;-68
2022/09/12 00:32:10;;;;;;;8.45;7.60;;;21.10;93.30;;;;;;5033521;28;20471;-68
2022/09/12 00:34:36;;;;;;;8.05;7.35;;;21.10;93.40;;;;;;5033250;28;20017;-73
2022/09/12 00:37:02;;;;;;;8.43;7.63;;;21.00;93.40;;;;;;5033418;28;20487;-74
2022/09/12 00:39:28;;;;;;;8.25;7.43;;;21.00;93.40;;;;;;5033272;28;20104;-70
2022/09/12 00:41:53;;;;;;;8.32;7.47;;;21.00;93.40;;;;;;5033355;28;20120;-74
2022/09/12 00:44:22;;;;;;;8.52;7.68;;;21.00;93.50;;;;;;5033121;28;20033;-71
2022/09/12 00:46:58;;;;;;;10.43;7.55;;;20.90;93.60;;;;;;5033430;28;20025;-74
2022/09/12 00:49:38;;;;;;;8.90;8.02;;;20.90;93.60;;;;;;5032889;28;20032;-74
2022/09/12 00:52:24;;;;;;;8.10;7.38;;;21.00;93.60;;;;;;5033288;28;20091;-73
2022/09/12 00:55:19;;;;;;;8.75;7.85;;;20.90;93.70;;;;;;5034061;28;20025;-73
2022/09/12 00:57:52;;;;;;;10.45;8.48;;;20.90;93.70;;;;;;5033000;28;20046;-73
2022/09/12 01:00:20;;;;;;;8.15;7.35;;;20.90;93.70;;;;;;5032986;28;20024;-72
2022/09/12 01:02:52;;;;;;;8.32;7.63;;;20.90;93.70;;;;;;5033178;28;20025;-73
2022/09/12 01:05:18;;;;;;;9.32;8.43;;;20.80;93.80;;;;;;5032428;28;20128;-72
2022/09/12 01:07:47;;;;;;;9.52;8.63;;;20.80;93.80;;;;;;5033205;28;20021;-74
2022/09/12 01:10:13;;;;;;;9.65;8.65;;;20.80;93.90;;;;;;5032891;28;20036;-74
2022/09/12 01:12:41;;;;;;;9.48;8.52;;;20.80;94.10;;;;;;5032953;28;20030;-73
2022/09/12 01:15:07;;;;;;;13.68;8.65;;;20.80;94.00;;;;;;5032900;28;20068;-72
2022/09/12 01:18:07;;;;;;;9.80;8.75;;;20.80;94.10;;;;;;5032805;28;20489;-70
2022/09/12 01:21:14;;;;;;;9.90;8.90;;;20.80;94.30;;;;;;5031591;28;20026;-72
2022/09/12 01:24:20;;;;;;;9.52;8.63;;;20.80;94.00;;;;;;5012777;28;20040;-73
2022/09/12 01:27:15;;;;;;;10.52;9.43;;;20.80;94.10;;;;;;5036867;28;20021;-73
2022/09/12 01:29:43;;;;;;;10.05;9.13;;;20.70;94.00;;;;;;5037000;28;20017;-71
2022/09/12 01:32:24;;;;;;;10.45;8.57;;;20.70;94.10;;;;;;5036792;28;20409;-73
2022/09/12 01:35:06;;;;;;;10.73;9.48;;;20.70;94.10;;;;;;5036643;28;20025;-72
2022/09/12 01:38:05;;;;;;;10.57;9.25;;;20.70;94.20;;;;;;5036874;28;20070;-72
2022/09/12 01:41:14;;;;;;;10.65;8.27;;;20.70;94.30;;;;;;5029009;28;20517;-74
2022/09/12 01:43:55;;;;;;;9.07;8.18;;;20.70;94.30;;;;;;5030155;28;20061;-73
2022/09/12 01:46:34;;;;;;;9.23;8.32;;;20.70;94.30;;;;;;5036913;28;20463;-74
2022/09/12 01:49:39;;;;;;;11.02;9.32;;;20.70;94.30;;;;;;5036281;28;20029;-73
2022/09/12 01:52:17;;;;;;;10.65;9.75;;;20.60;94.40;;;;;;5036423;28;20467;-74
2022/09/12 01:54:56;;;;;;;9.60;8.70;;;20.60;94.30;;;;;;5036474;28;20050;-75
2022/09/12 01:57:31;;;;;;;12.20;9.98;;;20.60;94.40;;;;;;5036101;28;20021;-72
2022/09/12 02:00:02;;;;;;;10.27;9.35;;;20.60;94.70;;;;;;5036580;28;20152;-74
2022/09/12 02:02:46;;;;;;;12.75;10.68;;;20.60;94.50;;;;;;5035961;28;20380;-74
2022/09/12 02:05:47;;;;;;;12.70;9.90;;;20.60;94.50;;;;;;5036024;28;20041;-73
2022/09/12 02:08:21;;;;;;;11.60;9.50;;;20.50;94.60;;;;;;5036388;28;20072;-74
2022/09/12 02:10:52;;;;;;;14.52;10.50;;;20.60;94.60;;;;;;5035898;28;20112;-74
2022/09/12 02:13:23;;;;;;;11.30;9.98;;;20.50;94.60;;;;;;5035976;28;20123;-73
2022/09/12 02:15:54;;;;;;;14.48;9.95;;;20.50;94.70;;;;;;5035318;28;20470;-74
2022/09/12 02:18:20;;;;;;;11.80;10.60;;;20.50;94.70;;;;;;5035824;28;20021;-71
2022/09/12 02:20:47;;;;;;;11.13;10.05;;;20.60;94.70;;;;;;5036096;28;20140;-74
2022/09/12 02:23:19;;;;;;;10.98;9.98;;;20.50;94.70;;;;;;5035712;28;20026;-74
2022/09/12 02:25:47;;;;;;;12.00;10.60;;;20.50;94.80;;;;;;5036511;28;20025;-74
2022/09/12 02:28:17;;;;;;;15.80;10.68;;;20.50;94.80;;;;;;5036044;28;20013;-71
2022/09/12 02:30:55;;;;;;;11.10;10.00;;;20.50;94.80;;;;;;5035293;28;20026;-67
2022/09/12 02:33:37;;;;;;;12.02;10.80;;;20.50;94.90;;;;;;5034338;28;20022;-67
2022/09/12 02:36:32;;;;;;;11.03;9.93;;;20.50;94.90;;;;;;5035820;28;20032;-74
2022/09/12 02:38:58;;;;;;;11.90;10.75;;;20.40;94.90;;;;;;5035776;28;20036;-73
2022/09/12 02:41:24;;;;;;;12.57;11.18;;;20.40;94.90;;;;;;5035128;28;20025;-73
2022/09/12 02:43:52;;;;;;;11.63;10.48;;;20.40;95.00;;;;;;5035523;28;20041;-74
2022/09/12 02:46:23;;;;;;;11.20;10.10;;;20.40;95.00;;;;;;5035335;28;20462;-73
2022/09/12 02:48:49;;;;;;;11.27;10.13;;;20.40;95.00;;;;;;5035289;28;20088;-67
2022/09/12 02:51:14;;;;;;;13.98;10.35;;;20.40;95.00;;;;;;5034302;28;20017;-71
2022/09/12 02:53:40;;;;;;;11.75;10.60;;;20.40;95.00;;;;;;5035053;28;20026;-73
2022/09/12 02:56:13;;;;;;;11.25;10.15;;;20.50;95.00;;;;;;5035431;28;20025;-72
2022/09/12 02:58:38;;;;;;;;;;;20.40;95.00;;;;;;5035540;28;20466;-73
2022/09/12 03:01:26;;;;;;;11.80;10.20;;;20.50;95.00;;;;;;5034884;28;19912;-74
2022/09/12 03:04:13;;;;;;;10.70;9.80;;;20.50;95.10;;;;;;5034897;28;20025;-73
2022/09/12 03:06:54;;;;;;;13.63;10.95;;;20.30;95.10;;;;;;5035026;28;20029;-73
2022/09/12 03:09:46;;;;;;;13.25;10.90;;;20.20;95.20;;;;;;5035197;28;20067;-73
2022/09/12 03:12:14;;;;;;;13.20;11.90;;;20.20;95.30;;;;;;5033713;28;20053;-73
2022/09/12 03:15:01;;;;;;;13.00;11.70;;;20.20;95.30;;;;;;5034562;28;20276;-74
2022/09/12 03:17:43;;;;;;;13.32;12.00;;;20.20;95.30;;;;;;5034752;28;20425;-73
2022/09/12 03:20:21;;;;;;;12.67;11.10;;;20.30;95.30;;;;;;5035225;28;20018;-73
2022/09/12 03:22:54;;;;;;;11.55;10.43;;;20.30;95.20;;;;;;5034877;28;20026;-74
2022/09/12 03:25:26;;;;;;;12.20;11.00;;;20.30;95.20;;;;;;5034940;28;20390;-74
2022/09/12 03:27:58;;;;;;;11.77;10.57;;;20.20;95.20;;;;;;5034830;28;20117;-74
2022/09/12 03:30:24;;;;;;;12.23;11.13;;;20.30;95.20;;;;;;5034589;28;20025;-73
2022/09/12 03:32:52;;;;;;;12.25;11.00;;;20.20;95.20;;;;;;5035882;28;20025;-74
2022/09/12 03:35:20;;;;;;;12.23;11.00;;;20.20;95.20;;;;;;5044545;28;20024;-74
2022/09/12 03:37:47;;;;;;;12.73;11.45;;;20.20;95.30;;;;;;5034708;28;20029;-67
2022/09/12 03:40:14;;;;;;;12.50;11.20;;;20.20;95.30;;;;;;5031727;28;20029;-68
2022/09/12 03:42:40;;;;;;;16.65;10.60;;;20.20;95.30;;;;;;5033421;28;20039;-66
2022/09/12 03:45:07;;;;;;;14.75;11.80;;;20.20;95.30;;;;;;5032763;28;20060;-72
2022/09/12 03:47:33;;;;;;;12.18;10.80;;;20.20;95.30;;;;;;5033751;28;20432;-71
2022/09/12 03:49:59;;;;;;;12.40;10.80;;;20.10;95.30;;;;;;5034213;28;20474;-67
2022/09/12 03:52:25;;;;;;;11.98;10.45;;;20.10;95.40;;;;;;5034193;28;20498;-74
2022/09/12 03:54:51;;;;;;;11.07;10.13;;;20.20;95.40;;;;;;5034256;28;20025;-72
2022/09/12 03:57:16;;;;;;;11.50;10.50;;;20.20;95.40;;;;;;5034240;28;20462;-68
2022/09/12 03:59:42;;;;;;;12.73;11.40;;;20.10;95.40;;;;;;5033801;28;20032;-74
2022/09/12 04:02:11;;;;;;;13.32;11.07;;;20.10;95.50;;;;;;5033993;28;20026;-72
2022/09/12 04:04:37;;;;;;;11.88;10.77;;;20.10;95.50;;;;;;5033586;28;20487;-72
2022/09/12 04:07:02;;;;;;;12.65;11.35;;;20.10;95.50;;;;;;5034235;28;20028;-69
2022/09/12 04:09:28;;;;;;;14.02;12.38;;;20.10;95.50;;;;;;5033707;28;20474;-74
2022/09/12 04:11:53;;;;;;;14.15;11.35;;;20.10;95.50;;;;;;5034005;28;20048;-74
2022/09/12 04:14:19;;;;;;;12.65;11.43;;;20.10;95.50;;;;;;5033511;28;20475;-68
2022/09/12 04:16:44;;;;;;;12.35;11.25;;;20.00;95.50;;;;;;5033706;28;20076;-72
2022/09/12 04:19:10;;;;;;;13.63;12.25;;;20.10;95.50;;;;;;5033582;28;20026;-72
2022/09/12 04:21:36;;;;;;;14.25;11.45;;;20.00;95.50;;;;;;5033745;28;20040;-72
2022/09/12 04:24:02;;;;;;;14.23;12.43;;;20.00;95.60;;;;;;5033397;28;20478;-72
2022/09/12 04:26:28;;;;;;;13.85;12.40;;;20.00;95.60;;;;;;5033673;28;20056;-71
2022/09/12 04:28:56;;;;;;;13.25;11.55;;;20.00;95.70;;;;;;5033310;28;20428;-73
2022/09/12 04:31:22;;;;;;;14.95;13.07;;;19.90;95.70;;;;;;5033531;28;20015;-74
2022/09/12 04:33:59;;;;;;;14.82;13.32;;;19.90;95.70;;;;;;5032992;28;20124;-74
2022/09/12 04:36:26;;;;;;;15.15;13.00;;;20.00;95.80;;;;;;5033790;28;20026;-68
2022/09/12 04:38:52;;;;;;;14.40;12.73;;;20.00;95.70;;;;;;5033308;28;20017;-72
2022/09/12 04:41:20;;;;;;;34.03;14.73;;;20.00;95.80;;;;;;5032924;28;20130;-72
2022/09/12 04:43:50;;;;;;;15.10;13.45;;;20.00;95.70;;;;;;5033310;28;20057;-72
2022/09/12 04:46:18;;;;;;;14.10;12.68;;;20.00;95.20;;;;;;5033300;28;20030;-73
2022/09/12 04:48:45;;;;;;;16.20;13.43;;;20.00;95.00;;;;;;5033189;28;20156;-72
2022/09/12 04:51:16;;;;;;;13.75;12.45;;;20.10;95.00;;;;;;5033400;28;20025;-68
2022/09/12 04:53:42;;;;;;;16.17;13.07;;;20.10;94.80;;;;;;5036223;28;20021;-69
2022/09/12 04:56:10;;;;;;;16.00;13.05;;;20.10;94.80;;;;;;5043613;28;20032;-68
2022/09/12 04:58:37;;;;;;;15.00;12.68;;;20.10;94.80;;;;;;5036413;28;20017;-72
2022/09/12 05:01:11;;;;;;;14.45;12.65;;;20.10;94.80;;;;;;5039127;28;20053;-73
2022/09/12 05:03:38;;;;;;;14.50;13.05;;;20.00;95.20;;;;;;5039860;28;20052;-68
2022/09/12 05:06:08;;;;;;;17.90;12.80;;;20.00;95.30;;;;;;5036496;28;20031;-73
2022/09/12 05:08:34;;;;;;;14.10;12.70;;;19.90;95.40;;;;;;5036152;28;20052;-69
2022/09/12 05:11:05;;;;;;;15.73;12.45;;;19.90;95.50;;;;;;5032819;28;20053;-66
2022/09/12 05:13:32;;;;;;;15.53;13.93;;;19.90;95.40;;;;;;5032533;28;20029;-69
2022/09/12 05:15:58;;;;;;;16.08;12.90;;;19.90;95.40;;;;;;5032780;28;20048;-73
2022/09/12 05:18:25;;;;;;;15.77;12.68;;;19.90;95.50;;;;;;5034089;28;20124;-73
2022/09/12 05:20:54;;;;;;;19.55;13.75;;;19.80;95.50;;;;;;5046429;28;20033;-73
2022/09/12 05:23:20;;;;;;;14.23;12.75;;;19.80;95.50;;;;;;5044017;28;20381;-72
2022/09/12 05:25:51;;;;;;;14.68;13.07;;;19.80;95.50;;;;;;5063392;28;20041;-69
2022/09/12 05:28:17;;;;;;;16.25;13.73;;;19.80;95.50;;;;;;5065215;28;20056;-70
2022/09/12 05:30:43;;;;;;;15.52;13.95;;;19.80;95.50;;;;;;5049875;28;20485;-68
2022/09/12 05:33:09;;;;;;;16.08;13.05;;;19.80;95.60;;;;;;5039030;28;20033;-68
2022/09/12 05:35:36;;;;;;;14.32;12.77;;;19.80;95.60;;;;;;5037572;28;20100;-73
2022/09/12 05:38:02;;;;;;;13.30;11.23;;;19.80;95.50;;;;;;5053580;28;20028;-73
2022/09/12 05:40:28;;;;;;;14.95;12.70;;;19.80;95.60;;;;;;5042491;28;20065;-72
2022/09/12 05:42:54;;;;;;;14.10;12.57;;;19.80;95.60;;;;;;5053053;28;20067;-72
2022/09/12 05:45:20;;;;;;;15.07;13.60;;;19.80;95.60;;;;;;5052624;28;20033;-71
2022/09/12 05:47:46;;;;;;;13.05;11.70;;;19.80;95.50;;;;;;5052555;28;20024;-70
2022/09/12 05:50:11;;;;;;;14.38;12.88;;;19.80;95.60;;;;;;5052558;28;20025;-73
2022/09/12 05:52:37;;;;;;;15.60;12.75;;;19.80;95.70;;;;;;5051729;28;20043;-72
2022/09/12 05:55:04;;;;;;;13.95;12.50;;;19.80;95.60;;;;;;5041026;28;20025;-73
2022/09/12 05:57:29;;;;;;;10.88;9.80;;;19.80;95.70;;;;;;5046800;28;20036;-72
2022/09/12 05:59:55;;;;;;;9.15;8.00;;;19.80;95.80;;;;;;5034135;28;20017;-73
2022/09/12 06:02:20;;;;;;;10.27;7.75;;;19.80;95.90;;;;;;5047268;28;20036;-74
2022/09/12 06:04:46;;;;;;;11.18;9.98;;;19.80;96.00;;;;;;5061722;28;20039;-72
2022/09/12 06:07:12;;;;;;;14.18;12.68;;;19.80;96.00;;;;;;5053848;28;20021;-72
2022/09/12 06:09:37;;;;;;;12.18;10.90;;;19.80;96.10;;;;;;5055972;28;20389;-72
2022/09/12 06:12:04;;;;;;;13.95;10.98;;;19.80;96.00;;;;;;5059231;28;20056;-68
2022/09/12 06:14:29;;;;;;;13.98;11.18;;;19.90;96.00;;;;;;5066215;28;20493;-72
2022/09/12 06:16:55;;;;;;;12.38;10.98;;;19.90;96.10;;;;;;5074842;28;20099;-72
2022/09/12 06:19:26;;;;;;;13.45;10.38;;;19.90;96.20;;;;;;5075570;28;20043;-73
2022/09/12 06:21:52;;;;;;;13.98;11.52;;;19.90;96.30;;;;;;5075059;28;20019;-69
2022/09/12 06:24:19;;;;;;;14.00;12.13;;;19.90;96.50;;;;;;5074701;28;20085;-72
2022/09/12 06:26:46;;;;;;;13.50;11.85;;;19.90;96.70;;;;;;5074541;28;20027;-73
2022/09/12 06:29:12;;;;;;;14.48;10.70;;;19.90;96.60;;;;;;5075022;28;20074;-68
2022/09/12 06:31:40;;;;;;;8.23;7.43;;;19.90;96.50;;;;;;5044235;28;20083;-69
2022/09/12 06:34:09;;;;;;;9.50;6.63;;;19.90;96.40;;;;;;5035197;28;20363;-72
2022/09/12 06:36:41;;;;;;;12.20;10.25;;;19.90;96.40;;;;;;5034724;28;20028;-69
2022/09/12 06:39:12;;;;;;;10.70;8.48;;;19.90;96.70;;;;;;5034945;28;20030;-68
2022/09/12 06:41:37;;;;;;;9.75;8.20;;;20.00;96.50;;;;;;5034772;28;20029;-73
2022/09/12 06:44:03;;;;;;;6.53;5.93;;;19.90;96.60;;;;;;5035184;28;20045;-71
2022/09/12 06:46:30;;;;;;;11.95;8.77;;;20.00;96.50;;;;;;5035410;28;20375;-71
2022/09/12 06:48:56;;;;;;;10.27;6.97;;;20.00;96.80;;;;;;5035566;28;20030;-74
2022/09/12 06:51:23;;;;;;;8.38;6.90;;;20.00;96.70;;;;;;5035415;28;20018;-67
2022/09/12 06:53:49;;;;;;;9.43;5.90;;;20.00;96.70;;;;;;5035070;28;20135;-69
2022/09/12 06:56:20;;;;;;;9.57;8.68;;;20.00;96.70;;;;;;5035373;28;20110;-73
2022/09/12 06:58:46;;;;;;;6.97;6.28;;;20.00;96.80;;;;;;5035186;28;20032;-72
2022/09/12 07:01:27;;;;;;;9.13;7.82;;;20.00;96.80;;;;;;5035314;28;20018;-73
2022/09/12 07:04:00;;;;;;;9.68;7.53;;;20.00;96.80;;;;;;5034764;28;20033;-73
2022/09/12 07:06:30;;;;;;;8.00;7.20;;;20.00;96.80;;;;;;5034817;28;20029;-73
2022/09/12 07:09:01;;;;;;;7.88;7.00;;;20.00;96.80;;;;;;5034910;28;20565;-73
2022/09/12 07:11:30;;;;;;;8.63;7.45;;;20.10;96.90;;;;;;5034977;28;20124;-72
2022/09/12 07:13:58;;;;;;;8.25;7.45;;;20.10;96.80;;;;;;5035480;28;20033;-73
2022/09/12 07:16:24;;;;;;;10.30;7.18;;;20.10;96.90;;;;;;5045129;28;20031;-73
2022/09/12 07:18:58;;;;;;;17.13;9.13;;;20.10;96.90;;;;;;5052858;28;20222;-73
2022/09/12 07:21:23;;;;;;;10.80;8.63;;;20.10;96.90;;;;;;5049957;28;20103;-73
2022/09/12 07:23:56;;;;;;;7.78;6.65;;;20.20;97.00;;;;;;5053744;28;20111;-72
2022/09/12 07:26:23;;;;;;;9.00;7.60;;;20.20;97.00;;;;;;5068452;28;20100;-72
2022/09/12 07:28:53;;;;;;;7.97;7.15;;;20.20;97.20;;;;;;5059179;28;20032;-72
2022/09/12 07:31:23;;;;;;;10.10;6.03;;;20.20;97.10;;;;;;5061772;28;20025;-72
2022/09/12 07:33:49;;;;;;;9.38;7.85;;;20.20;96.90;;;;;;5068119;28;20024;-74
2022/09/12 07:36:18;;;;;;;8.82;6.63;;;20.20;97.10;;;;;;5056448;28;20027;-73
2022/09/12 07:38:45;;;;;;;9.45;7.32;;;20.20;97.10;;;;;;5067295;28;20044;-72
2022/09/12 07:41:23;;;;;;;10.00;7.80;;;20.30;97.10;;;;;;5056763;28;20141;-71
2022/09/12 07:43:53;;;;;;;5.68;4.80;;;20.20;97.00;;;;;;5067395;28;20107;-73
2022/09/12 07:46:19;;;;;;;5.15;3.97;;;20.20;96.90;;;;;;5056964;28;20421;-73
2022/09/12 07:48:50;;;;;;;4.32;3.92;;;20.30;96.80;;;;;;5066688;28;20104;-72
2022/09/12 07:51:16;;;;;;;5.22;4.38;;;20.40;96.70;;;;;;5062951;28;20385;-71
2022/09/12 07:53:45;;;;;;;6.07;3.92;;;20.40;96.70;;;;;;5059215;28;20017;-71
2022/09/12 07:56:12;;;;;;;5.57;4.22;;;20.40;96.90;;;;;;5069430;28;20065;-72
2022/09/12 07:58:39;;;;;;;5.50;5.00;;;20.40;96.60;;;;;;5055463;28;20020;-70
2022/09/12 08:01:11;;;;;;;5.05;4.43;;;20.50;96.60;;;;;;5061433;28;20017;-71
2022/09/12 08:03:41;;;;;;;6.72;5.47;;;20.50;96.50;;;;;;5059869;28;20029;-71
2022/09/12 08:06:10;;;;;;;7.32;5.53;;;20.60;96.40;;;;;;5069032;28;20537;-71
2022/09/12 08:08:37;;;;;;;9.00;5.40;;;20.60;96.40;;;;;;5049958;28;20020;-72
2022/09/12 08:11:05;;;;;;;8.15;4.20;;;20.60;96.30;;;;;;5060065;28;20025;-72
2022/09/12 08:13:33;;;;;;;5.47;4.50;;;20.60;96.30;;;;;;5053315;28;20051;-71
2022/09/12 08:15:59;;;;;;;7.50;4.68;;;20.70;96.30;;;;;;5068444;28;20028;-70
2022/09/12 08:18:27;;;;;;;6.97;4.88;;;20.70;96.30;;;;;;5054372;28;20029;-70
2022/09/12 08:20:57;;;;;;;8.82;4.25;;;20.70;96.30;;;;;;5069095;28;20493;-69
2022/09/12 08:23:23;;;;;;;11.32;6.18;;;20.70;96.20;;;;;;5060611;28;20474;-72
2022/09/12 08:25:49;;;;;;;8.30;5.53;;;20.80;96.00;;;;;;5062311;28;20024;-72
2022/09/12 08:28:15;;;;;;;7.18;5.07;;;20.80;95.90;;;;;;5068364;28;20023;-71
2022/09/12 08:30:40;;;;;;;7.20;5.38;;;20.80;95.80;;;;;;5056564;28;20385;-71
2022/09/12 08:33:07;;;;;;;6.93;5.40;;;20.80;95.80;;;;;;5051451;28;20068;-71
2022/09/12 08:35:32;;;;;;;8.07;5.22;;;20.80;95.70;;;;;;5052297;28;20032;-71
2022/09/12 08:37:58;;;;;;;6.25;5.53;;;20.80;95.70;;;;;;5052325;28;20029;-70
2022/09/12 08:40:23;;;;;;;8.38;4.88;;;20.80;95.50;;;;;;5047935;28;20023;-68
2022/09/12 08:43:01;;;;;;;7.65;5.30;;;20.90;95.50;;;;;;5041766;28;20048;-69
2022/09/12 08:45:41;;;;;;;12.75;6.22;;;20.90;95.40;;;;;;5029396;28;20033;-70
2022/09/12 08:48:10;;;;;;;7.82;4.78;;;20.90;95.50;;;;;;5049664;28;20065;-67
2022/09/12 08:50:35;;;;;;;8.10;5.55;;;20.90;95.40;;;;;;5051514;28;20029;-70
2022/09/12 08:53:03;;;;;;;5.55;4.65;;;20.90;95.30;;;;;;5051484;28;20021;-69
2022/09/12 08:55:30;;;;;;;7.53;4.82;;;20.90;95.40;;;;;;5050721;28;20497;-71
2022/09/12 08:57:59;;;;;;;5.40;4.90;;;21.00;95.40;;;;;;5051807;28;20056;-71
2022/09/12 09:00:30;;;;;;;5.47;4.50;;;21.00;95.70;;;;;;5050023;28;20487;-72
2022/09/12 09:03:33;;;;;;;10.55;4.93;;;21.00;95.40;;;;;;5036785;28;20029;-70
2022/09/12 09:06:25;;;;;;;5.32;3.90;;;21.10;95.40;;;;;;5016611;28;20501;-72
2022/09/12 09:09:11;;;;;;;8.93;4.72;;;21.10;95.20;;;;;;5032419;28;20032;-72
2022/09/12 09:11:49;;;;;;;5.38;3.67;;;21.10;95.00;;;;;;5033067;28;20105;-72
2022/09/12 09:15:11;;;;;;;4.70;4.03;;;21.10;95.20;;;;;;5045715;28;20029;-74
2022/09/12 09:17:48;;;;;;;5.53;4.05;;;21.10;95.30;;;;;;5030421;28;20075;-74
2022/09/12 09:20:35;;;;;;;7.82;3.75;;;21.10;95.20;;;;;;5030733;28;20406;-74
2022/09/12 09:23:29;;;;;;;7.65;4.28;;;21.10;95.20;;;;;;5045664;28;20478;-73
2022/09/12 09:26:15;;;;;;;6.22;4.35;;;21.20;95.10;;;;;;5052292;28;20441;-74
2022/09/12 09:28:47;;;;;;;7.75;3.90;;;21.20;95.00;;;;;;5052754;28;20110;-75
2022/09/12 09:31:23;;;;;;;5.37;3.63;;;21.20;95.00;;;;;;5052366;28;20025;-73
2022/09/12 09:33:54;;;;;;;4.55;3.40;;;21.20;95.00;;;;;;5052589;28;20032;-74
2022/09/12 09:36:41;;;;;;;4.38;3.47;;;21.20;94.90;;;;;;5052645;28;20029;-74
2022/09/12 09:39:34;;;;;;;3.55;3.25;;;21.30;94.90;;;;;;5052452;28;20110;-73
2022/09/12 09:42:32;;;;;;;6.70;3.42;;;21.30;94.80;;;;;;5051119;28;20074;-74
2022/09/12 09:45:01;;;;;;;4.78;3.08;;;21.30;94.80;;;;;;5055039;28;20037;-73
2022/09/12 09:47:26;;;;;;;5.32;3.13;;;21.40;94.70;;;;;;5055046;28;20079;-74
2022/09/12 09:49:52;;;;;;;5.55;3.30;;;21.40;94.60;;;;;;5056674;28;20021;-74
2022/09/12 09:52:26;;;;;;;3.35;2.90;;;21.40;94.50;;;;;;5056043;28;20086;-73
2022/09/12 09:54:59;;;;;;;5.18;2.97;;;21.40;94.50;;;;;;5055868;28;20499;-74
2022/09/12 09:57:34;;;;;;;4.82;2.80;;;21.40;94.40;;;;;;5056204;28;20025;-74
2022/09/12 10:00:20;;;;;;;3.28;2.90;;;21.40;94.00;;;;;;5056482;28;20066;-74
2022/09/12 10:03:01;;;;;;;3.78;2.70;;;21.40;94.20;;;;;;5053609;28;20497;-73
2022/09/12 10:05:28;;;;;;;3.33;2.47;;;21.50;94.40;;;;;;5047195;28;20049;-72
2022/09/12 10:07:53;;;;;;;3.72;2.63;;;21.50;94.30;;;;;;5040327;28;20030;-74
2022/09/12 10:10:22;;;;;;;3.58;2.70;;;21.50;94.40;;;;;;5042085;28;20075;-74
2022/09/12 10:12:49;;;;;;;4.03;3.15;;;21.50;94.40;;;;;;5045925;28;20466;-74
2022/09/12 10:15:18;;;;;;;3.83;3.05;;;21.50;94.30;;;;;;5053062;28;20100;-74
2022/09/12 10:17:46;;;;;;;5.03;2.83;;;21.50;94.30;;;;;;5052607;28;20028;-74
2022/09/12 10:20:44;;;;;;;3.38;2.55;;;21.50;94.30;;;;;;5055537;28;20107;-73
2022/09/12 10:23:18;;;;;;;6.70;2.90;;;21.60;94.40;;;;;;5056284;28;20052;-74
2022/09/12 10:26:13;;;;;;;5.88;2.90;;;21.60;93.90;;;;;;5044559;28;20083;-71
2022/09/12 10:29:02;;;;;;;5.97;2.63;;;21.60;94.20;;;;;;5041242;28;20030;-74
2022/09/12 10:31:40;;;;;;;3.05;2.50;;;21.60;94.30;;;;;;5045852;28;20053;-72
2022/09/12 10:34:26;;;;;;;5.95;2.92;;;21.60;94.30;;;;;;5037638;28;20025;-73
2022/09/12 10:36:59;;;;;;;4.28;2.70;;;21.60;93.90;;;;;;5050200;28;20111;-72
2022/09/12 10:39:25;;;;;;;3.65;3.10;;;21.70;93.40;;;;;;5040261;28;20029;-71
2022/09/12 10:41:51;;;;;;;4.05;2.65;;;21.70;94.10;;;;;;5047285;28;20048;-68
2022/09/12 10:44:26;;;;;;;3.83;2.53;;;21.80;94.10;;;;;;5035122;28;20042;-74
2022/09/12 10:46:53;;;;;;;2.85;2.47;;;21.70;94.00;;;;;;5044487;28;20118;-74
2022/09/12 10:49:25;;;;;;;3.78;2.25;;;21.70;94.00;;;;;;5055494;28;20052;-73
2022/09/12 10:51:52;;;;;;;3.85;2.50;;;21.70;94.10;;;;;;5055300;28;20378;-73
2022/09/12 10:54:21;;;;;;;4.05;2.40;;;21.80;93.60;;;;;;5047618;28;20028;-68
2022/09/12 10:57:07;;;;;;;3.05;2.60;;;21.80;93.90;;;;;;5034993;28;20033;-72
2022/09/12 11:00:19;;;;;;;3.58;2.60;;;21.80;93.80;;;;;;5048484;28;20028;-73
2022/09/12 11:03:14;;;;;;;5.50;2.50;;;21.80;93.60;;;;;;5036126;28;20091;-68
2022/09/12 11:05:48;;;;;;;3.08;2.30;;;21.80;93.70;;;;;;5046194;28;20164;-70
2022/09/12 11:08:49;;;;;;;4.43;2.33;;;21.80;93.70;;;;;;5046362;28;20279;-74
2022/09/12 11:11:42;;;;;;;3.90;2.35;;;21.80;93.40;;;;;;5035862;28;20484;-74
2022/09/12 11:14:28;;;;;;;4.25;2.42;;;21.80;93.30;;;;;;5035703;28;20030;-73
2022/09/12 11:17:18;;;;;;;3.03;1.95;;;21.90;93.40;;;;;;5035317;28;20052;-74
2022/09/12 11:20:02;;;;;;;3.13;2.30;;;21.90;93.30;;;;;;5036072;28;20025;-74
2022/09/12 11:22:46;;;;;;;2.90;1.90;;;21.90;93.20;;;;;;5036173;28;20465;-74
2022/09/12 11:25:26;;;;;;;2.85;1.80;;;21.90;93.10;;;;;;5049788;28;20037;-74
2022/09/12 11:28:39;;;;;;;2.95;1.90;;;21.90;92.90;;;;;;5042790;28;20045;-74
2022/09/12 11:31:28;;;;;;;2.20;2.00;;;22.00;92.60;;;;;;5035494;28;20048;-72
2022/09/12 11:33:56;;;;;;;2.85;1.80;;;22.00;92.90;;;;;;5034843;28;20029;-74
2022/09/12 11:36:46;;;;;;;3.45;2.15;;;22.00;92.90;;;;;;5039098;28;20017;-73
2022/09/12 11:39:20;;;;;;;4.90;2.08;;;22.00;92.80;;;;;;5052467;28;20029;-73
2022/09/12 11:41:55;;;;;;;5.10;2.28;;;22.00;92.80;;;;;;5053242;28;20116;-74
2022/09/12 11:44:35;;;;;;;2.03;1.55;;;22.00;92.70;;;;;;5034962;28;20033;-74
2022/09/12 11:47:05;;;;;;;4.13;2.13;;;22.00;92.80;;;;;;5052633;28;20037;-74
2022/09/12 11:49:36;;;;;;;2.15;1.80;;;22.10;92.70;;;;;;5053752;28;20056;-75
2022/09/12 11:52:28;;;;;;;6.18;2.25;;;22.10;92.80;;;;;;5052935;28;20064;-70
2022/09/12 11:55:07;;;;;;;3.78;1.92;;;22.10;92.70;;;;;;5049722;28;20018;-73
2022/09/12 11:57:42;;;;;;;2.53;1.70;;;22.10;92.70;;;;;;5034782;28;20025;-74
2022/09/12 12:00:21;;;;;;;2.78;1.98;;;22.10;92.70;;;;;;5035218;28;20034;-74
2022/09/12 12:03:15;;;;;;;3.13;1.80;;;22.20;92.70;;;;;;5048564;28;20033;-73
2022/09/12 12:05:52;;;;;;;3.65;1.50;;;22.10;92.40;;;;;;5040394;28;20095;-73
2022/09/12 12:08:21;;;;;;;5.40;1.85;;;22.20;92.60;;;;;;5035844;28;20034;-74
2022/09/12 12:10:58;;;;;;;2.50;1.83;;;22.20;92.60;;;;;;5041916;28;20473;-74
2022/09/12 12:13:32;;;;;;;2.88;1.80;;;22.20;92.60;;;;;;5053596;28;20035;-73
2022/09/12 12:16:07;;;;;;;2.97;1.95;;;22.20;92.60;;;;;;5040730;28;20116;-73
2022/09/12 12:18:36;;;;;;;2.95;1.95;;;22.30;92.60;;;;;;5053732;28;20086;-73
2022/09/12 12:21:40;;;;;;;3.88;1.70;;;22.20;92.60;;;;;;5051761;28;20047;-73
2022/09/12 12:24:08;;;;;;;4.20;1.75;;;22.20;92.60;;;;;;5051695;28;20025;-73
2022/09/12 12:26:40;;;;;;;3.55;1.75;;;22.30;92.60;;;;;;5035481;28;20600;-70
2022/09/12 12:29:36;;;;;;;2.85;1.88;;;22.30;92.40;;;;;;5033726;28;20532;-73
2022/09/12 12:32:01;;;;;;;2.42;1.50;;;22.30;92.40;;;;;;5033695;28;20021;-74
2022/09/12 12:34:32;;;;;;;2.15;1.80;;;22.40;92.30;;;;;;5034525;28;20398;-73
2022/09/12 12:37:21;;;;;;;2.57;1.40;;;22.40;92.10;;;;;;5034428;28;20120;-72
2022/09/12 12:39:47;;;;;;;2.60;1.58;;;22.40;92.30;;;;;;5038006;28;20646;-71
2022/09/12 12:42:34;;;;;;;2.92;1.67;;;22.40;92.30;;;;;;5041403;28;20127;-73
2022/09/12 12:45:08;;;;;;;4.25;1.70;;;22.40;92.40;;;;;;5046631;28;20045;-69
2022/09/12 12:47:35;;;;;;;5.13;2.38;;;22.40;92.20;;;;;;5033180;28;20050;-68
2022/09/12 12:50:04;;;;;;;4.57;2.00;;;22.50;91.30;;;;;;5046466;28;20112;-71
2022/09/12 12:52:40;;;;;;;2.45;1.73;;;22.50;91.70;;;;;;5049500;28;20033;-74
2022/09/12 12:55:16;;;;;;;3.20;1.65;;;22.50;91.90;;;;;;5032856;28;20029;-70
2022/09/12 12:57:56;;;;;;;2.28;1.55;;;22.50;92.00;;;;;;5033341;28;20459;-74
2022/09/12 13:00:24;;;;;;;3.10;1.70;;;22.50;92.00;;;;;;5034021;28;20029;-74
2022/09/12 13:03:04;;;;;;;2.72;1.80;;;22.50;92.00;;;;;;5034206;28;20104;-68
2022/09/12 13:05:39;;;;;;;2.55;1.75;;;22.50;92.00;;;;;;5033918;28;20471;-68
2022/09/12 13:08:28;;;;;;;2.70;1.60;;;22.60;91.30;;;;;;5051831;28;20017;-73
2022/09/12 13:10:59;;;;;;;2.03;1.67;;;22.60;90.50;;;;;;5052546;28;20378;-74